sensor_id;sensor_type;location;lat;lon;timestamp;P1;durP1;ratioP1;P2;durP2;ratioP2
15256;SDS011;7731;50.720;6.912;2024-03-29T00:01:00;3.67;;;1.60;;
15256;SDS011;7731;50.720;6.912;2024-03-29T00:03:31;4.40;;;1.47;;
15256;SDS011;7731;50.720;6.912;2024-03-29T00:05:57;1.97;;;0.90;;
15256;SDS011;7731;50.720;6.912;2024-03-29T00:08:24;2.60;;;1.10;;
15256;SDS011;7731;50.720;6.912;2024-03-29T00:10:51;2.37;;;1.00;;
15256;SDS011;7731;50.720;6.912;2024-03-29T00:13:17;2.77;;;1.10;;
15256;SDS011;7731;50.720;6.912;2024-03-29T00:15:45;2.90;;;1.10;;
15256;SDS011;7731;50.720;6.912;2024-03-29T00:18:12;2.87;;;1.27;;
15256;SDS011;7731;50.720;6.912;2024-03-29T00:20:41;3.67;;;1.40;;
15256;SDS011;7731;50.720;6.912;2024-03-29T00:23:08;2.67;;;1.37;;
15256;SDS011;7731;50.720;6.912;2024-03-29T00:25:35;4.53;;;1.20;;
15256;SDS011;7731;50.720;6.912;2024-03-29T00:28:03;2.97;;;1.40;;
15256;SDS011;7731;50.720;6.912;2024-03-29T00:30:31;2.47;;;1.00;;
15256;SDS011;7731;50.720;6.912;2024-03-29T00:32:58;2.47;;;1.17;;
15256;SDS011;7731;50.720;6.912;2024-03-29T00:35:26;3.70;;;1.30;;
15256;SDS011;7731;50.720;6.912;2024-03-29T00:37:55;2.90;;;1.07;;
15256;SDS011;7731;50.720;6.912;2024-03-29T00:40:22;2.60;;;1.30;;
15256;SDS011;7731;50.720;6.912;2024-03-29T00:42:48;3.63;;;1.30;;
15256;SDS011;7731;50.720;6.912;2024-03-29T00:45:15;2.43;;;1.27;;
15256;SDS011;7731;50.720;6.912;2024-03-29T00:47:41;2.47;;;0.90;;
15256;SDS011;7731;50.720;6.912;2024-03-29T00:50:09;3.43;;;1.17;;
15256;SDS011;7731;50.720;6.912;2024-03-29T00:52:36;1.57;;;1.10;;
15256;SDS011;7731;50.720;6.912;2024-03-29T00:55:05;3.03;;;1.20;;
15256;SDS011;7731;50.720;6.912;2024-03-29T00:57:33;2.43;;;1.20;;
15256;SDS011;7731;50.720;6.912;2024-03-29T01:00:01;3.43;;;1.10;;
15256;SDS011;7731;50.720;6.912;2024-03-29T01:02:29;2.17;;;1.17;;
15256;SDS011;7731;50.720;6.912;2024-03-29T01:04:55;2.40;;;1.10;;
15256;SDS011;7731;50.720;6.912;2024-03-29T01:07:22;3.37;;;1.10;;
15256;SDS011;7731;50.720;6.912;2024-03-29T01:09:49;2.80;;;1.00;;
15256;SDS011;7731;50.720;6.912;2024-03-29T01:12:18;2.97;;;1.50;;
15256;SDS011;7731;50.720;6.912;2024-03-29T01:14:46;2.53;;;1.07;;
15256;SDS011;7731;50.720;6.912;2024-03-29T01:17:12;1.70;;;0.90;;
15256;SDS011;7731;50.720;6.912;2024-03-29T01:19:39;2.07;;;1.10;;
15256;SDS011;7731;50.720;6.912;2024-03-29T01:22:05;3.43;;;1.10;;
15256;SDS011;7731;50.720;6.912;2024-03-29T01:24:34;2.57;;;1.10;;
15256;SDS011;7731;50.720;6.912;2024-03-29T01:27:01;4.43;;;1.10;;
15256;SDS011;7731;50.720;6.912;2024-03-29T01:29:30;3.23;;;1.60;;
15256;SDS011;7731;50.720;6.912;2024-03-29T01:31:57;3.17;;;1.90;;
15256;SDS011;7731;50.720;6.912;2024-03-29T01:34:24;3.17;;;1.30;;
15256;SDS011;7731;50.720;6.912;2024-03-29T01:36:51;2.03;;;1.00;;
15256;SDS011;7731;50.720;6.912;2024-03-29T01:39:17;2.77;;;1.10;;
15256;SDS011;7731;50.720;6.912;2024-03-29T01:41:44;3.93;;;1.40;;
15256;SDS011;7731;50.720;6.912;2024-03-29T01:44:10;3.33;;;1.17;;
15256;SDS011;7731;50.720;6.912;2024-03-29T01:46:41;4.23;;;1.67;;
15256;SDS011;7731;50.720;6.912;2024-03-29T01:49:10;2.33;;;1.23;;
15256;SDS011;7731;50.720;6.912;2024-03-29T01:51:37;2.63;;;1.27;;
15256;SDS011;7731;50.720;6.912;2024-03-29T01:54:05;2.70;;;0.90;;
15256;SDS011;7731;50.720;6.912;2024-03-29T01:56:34;2.50;;;1.00;;
15256;SDS011;7731;50.720;6.912;2024-03-29T01:59:03;3.50;;;1.20;;
15256;SDS011;7731;50.720;6.912;2024-03-29T02:01:30;5.00;;;1.30;;
15256;SDS011;7731;50.720;6.912;2024-03-29T02:03:59;3.30;;;1.07;;
15256;SDS011;7731;50.720;6.912;2024-03-29T02:06:27;2.80;;;1.23;;
15256;SDS011;7731;50.720;6.912;2024-03-29T02:08:55;3.53;;;1.03;;
15256;SDS011;7731;50.720;6.912;2024-03-29T02:11:22;4.27;;;1.07;;
15256;SDS011;7731;50.720;6.912;2024-03-29T02:13:48;2.70;;;1.50;;
15256;SDS011;7731;50.720;6.912;2024-03-29T02:16:17;2.63;;;1.20;;
15256;SDS011;7731;50.720;6.912;2024-03-29T02:18:44;3.33;;;1.53;;
15256;SDS011;7731;50.720;6.912;2024-03-29T02:21:14;2.60;;;1.43;;
15256;SDS011;7731;50.720;6.912;2024-03-29T02:23:42;4.83;;;1.30;;
15256;SDS011;7731;50.720;6.912;2024-03-29T02:26:15;3.10;;;1.20;;
15256;SDS011;7731;50.720;6.912;2024-03-29T02:28:41;2.90;;;1.30;;
15256;SDS011;7731;50.720;6.912;2024-03-29T02:31:08;3.70;;;1.30;;
15256;SDS011;7731;50.720;6.912;2024-03-29T02:33:35;3.87;;;1.40;;
15256;SDS011;7731;50.720;6.912;2024-03-29T02:36:01;2.60;;;1.20;;
15256;SDS011;7731;50.720;6.912;2024-03-29T02:38:29;3.20;;;1.17;;
15256;SDS011;7731;50.720;6.912;2024-03-29T02:40:55;3.20;;;1.27;;
15256;SDS011;7731;50.720;6.912;2024-03-29T02:43:26;2.40;;;1.10;;
15256;SDS011;7731;50.720;6.912;2024-03-29T02:45:53;3.47;;;1.40;;
15256;SDS011;7731;50.720;6.912;2024-03-29T02:48:20;2.30;;;0.90;;
15256;SDS011;7731;50.720;6.912;2024-03-29T02:50:47;3.33;;;1.33;;
15256;SDS011;7731;50.720;6.912;2024-03-29T02:53:14;1.97;;;1.10;;
15256;SDS011;7731;50.720;6.912;2024-03-29T02:55:41;2.83;;;1.17;;
15256;SDS011;7731;50.720;6.912;2024-03-29T02:58:07;1.97;;;1.00;;
15256;SDS011;7731;50.720;6.912;2024-03-29T03:00:38;2.87;;;1.07;;
15256;SDS011;7731;50.720;6.912;2024-03-29T03:03:05;2.93;;;1.20;;
15256;SDS011;7731;50.720;6.912;2024-03-29T03:05:31;3.40;;;1.17;;
15256;SDS011;7731;50.720;6.912;2024-03-29T03:07:58;4.63;;;1.30;;
15256;SDS011;7731;50.720;6.912;2024-03-29T03:10:44;2.20;;;1.10;;
15256;SDS011;7731;50.720;6.912;2024-03-29T03:13:26;2.23;;;1.20;;
15256;SDS011;7731;50.720;6.912;2024-03-29T03:15:56;2.40;;;1.10;;
15256;SDS011;7731;50.720;6.912;2024-03-29T03:18:23;2.77;;;1.13;;
15256;SDS011;7731;50.720;6.912;2024-03-29T03:20:50;2.83;;;1.07;;
15256;SDS011;7731;50.720;6.912;2024-03-29T03:23:17;2.60;;;1.30;;
15256;SDS011;7731;50.720;6.912;2024-03-29T03:25:44;3.80;;;1.63;;
15256;SDS011;7731;50.720;6.912;2024-03-29T03:28:11;3.53;;;1.40;;
15256;SDS011;7731;50.720;6.912;2024-03-29T03:30:38;3.27;;;1.10;;
15256;SDS011;7731;50.720;6.912;2024-03-29T03:33:09;2.70;;;1.37;;
15256;SDS011;7731;50.720;6.912;2024-03-29T03:35:35;1.97;;;1.10;;
15256;SDS011;7731;50.720;6.912;2024-03-29T03:38:02;1.80;;;0.87;;
15256;SDS011;7731;50.720;6.912;2024-03-29T03:40:29;4.37;;;1.20;;
15256;SDS011;7731;50.720;6.912;2024-03-29T03:42:56;4.17;;;1.53;;
15256;SDS011;7731;50.720;6.912;2024-03-29T03:45:22;2.33;;;1.27;;
15256;SDS011;7731;50.720;6.912;2024-03-29T03:47:49;3.10;;;1.70;;
15256;SDS011;7731;50.720;6.912;2024-03-29T03:50:18;2.40;;;1.40;;
15256;SDS011;7731;50.720;6.912;2024-03-29T03:52:44;2.40;;;1.17;;
15256;SDS011;7731;50.720;6.912;2024-03-29T03:55:12;2.50;;;1.13;;
15256;SDS011;7731;50.720;6.912;2024-03-29T03:57:39;3.00;;;1.30;;
15256;SDS011;7731;50.720;6.912;2024-03-29T04:00:06;2.30;;;1.33;;
15256;SDS011;7731;50.720;6.912;2024-03-29T04:02:34;2.23;;;1.10;;
15256;SDS011;7731;50.720;6.912;2024-03-29T04:05:01;3.47;;;1.30;;
15256;SDS011;7731;50.720;6.912;2024-03-29T04:07:31;3.77;;;1.43;;
15256;SDS011;7731;50.720;6.912;2024-03-29T04:09:57;3.17;;;1.33;;
15256;SDS011;7731;50.720;6.912;2024-03-29T04:12:24;3.13;;;1.40;;
15256;SDS011;7731;50.720;6.912;2024-03-29T04:14:51;1.70;;;1.00;;
15256;SDS011;7731;50.720;6.912;2024-03-29T04:17:18;3.37;;;1.30;;
15256;SDS011;7731;50.720;6.912;2024-03-29T04:19:44;1.93;;;1.10;;
15256;SDS011;7731;50.720;6.912;2024-03-29T04:22:11;1.97;;;1.10;;
15256;SDS011;7731;50.720;6.912;2024-03-29T04:24:41;2.90;;;1.23;;
15256;SDS011;7731;50.720;6.912;2024-03-29T04:27:08;2.73;;;1.20;;
15256;SDS011;7731;50.720;6.912;2024-03-29T04:29:34;3.10;;;1.37;;
15256;SDS011;7731;50.720;6.912;2024-03-29T04:32:01;2.83;;;1.20;;
15256;SDS011;7731;50.720;6.912;2024-03-29T04:34:28;3.27;;;1.00;;
15256;SDS011;7731;50.720;6.912;2024-03-29T04:36:54;2.73;;;1.10;;
15256;SDS011;7731;50.720;6.912;2024-03-29T04:39:22;2.57;;;1.30;;
15256;SDS011;7731;50.720;6.912;2024-03-29T04:41:51;2.80;;;1.20;;
15256;SDS011;7731;50.720;6.912;2024-03-29T04:44:22;2.97;;;1.30;;
15256;SDS011;7731;50.720;6.912;2024-03-29T04:46:53;3.37;;;1.20;;
15256;SDS011;7731;50.720;6.912;2024-03-29T04:49:22;2.63;;;1.20;;
15256;SDS011;7731;50.720;6.912;2024-03-29T04:51:49;3.57;;;1.07;;
15256;SDS011;7731;50.720;6.912;2024-03-29T04:54:16;2.37;;;1.07;;
15256;SDS011;7731;50.720;6.912;2024-03-29T04:56:43;3.07;;;1.30;;
15256;SDS011;7731;50.720;6.912;2024-03-29T04:59:14;2.40;;;1.53;;
15256;SDS011;7731;50.720;6.912;2024-03-29T05:01:41;2.33;;;1.10;;
15256;SDS011;7731;50.720;6.912;2024-03-29T05:04:08;3.43;;;1.20;;
15256;SDS011;7731;50.720;6.912;2024-03-29T05:06:34;1.53;;;1.03;;
15256;SDS011;7731;50.720;6.912;2024-03-29T05:09:01;3.80;;;1.20;;
15256;SDS011;7731;50.720;6.912;2024-03-29T05:11:27;4.07;;;1.20;;
15256;SDS011;7731;50.720;6.912;2024-03-29T05:13:54;3.27;;;1.00;;
15256;SDS011;7731;50.720;6.912;2024-03-29T05:16:23;1.17;;;1.07;;
15256;SDS011;7731;50.720;6.912;2024-03-29T05:18:50;5.07;;;1.10;;
15256;SDS011;7731;50.720;6.912;2024-03-29T05:21:17;2.87;;;1.33;;
15256;SDS011;7731;50.720;6.912;2024-03-29T05:23:43;2.17;;;1.20;;
15256;SDS011;7731;50.720;6.912;2024-03-29T05:26:10;2.13;;;1.10;;
15256;SDS011;7731;50.720;6.912;2024-03-29T05:28:36;3.33;;;1.30;;
15256;SDS011;7731;50.720;6.912;2024-03-29T05:31:11;3.42;;;1.33;;
15256;SDS011;7731;50.720;6.912;2024-03-29T05:33:42;2.90;;;1.17;;
15256;SDS011;7731;50.720;6.912;2024-03-29T05:36:08;6.30;;;4.40;;
15256;SDS011;7731;50.720;6.912;2024-03-29T05:38:36;3.50;;;1.50;;
15256;SDS011;7731;50.720;6.912;2024-03-29T05:41:04;3.03;;;1.30;;
15256;SDS011;7731;50.720;6.912;2024-03-29T05:43:31;2.47;;;1.25;;
15256;SDS011;7731;50.720;6.912;2024-03-29T05:45:58;2.40;;;1.30;;
15256;SDS011;7731;50.720;6.912;2024-03-29T05:48:25;2.35;;;1.20;;
15256;SDS011;7731;50.720;6.912;2024-03-29T05:50:55;2.95;;;1.50;;
15256;SDS011;7731;50.720;6.912;2024-03-29T05:53:21;1.70;;;1.10;;
15256;SDS011;7731;50.720;6.912;2024-03-29T05:55:48;2.45;;;1.40;;
15256;SDS011;7731;50.720;6.912;2024-03-29T05:58:14;1.77;;;1.10;;
15256;SDS011;7731;50.720;6.912;2024-03-29T06:00:42;2.13;;;1.20;;
15256;SDS011;7731;50.720;6.912;2024-03-29T06:03:08;2.22;;;1.13;;
15256;SDS011;7731;50.720;6.912;2024-03-29T06:05:35;2.42;;;1.20;;
15256;SDS011;7731;50.720;6.912;2024-03-29T06:08:05;1.40;;;1.00;;
15256;SDS011;7731;50.720;6.912;2024-03-29T06:10:33;2.35;;;1.15;;
15256;SDS011;7731;50.720;6.912;2024-03-29T06:12:59;3.10;;;1.45;;
15256;SDS011;7731;50.720;6.912;2024-03-29T06:15:26;1.98;;;1.13;;
15256;SDS011;7731;50.720;6.912;2024-03-29T06:18:07;2.97;;;1.30;;
15256;SDS011;7731;50.720;6.912;2024-03-29T06:20:34;2.38;;;1.20;;
15256;SDS011;7731;50.720;6.912;2024-03-29T06:23:01;2.00;;;0.90;;
15256;SDS011;7731;50.720;6.912;2024-03-29T06:25:30;2.47;;;1.20;;
15256;SDS011;7731;50.720;6.912;2024-03-29T06:27:58;1.80;;;1.13;;
15256;SDS011;7731;50.720;6.912;2024-03-29T06:30:26;2.22;;;1.15;;
15256;SDS011;7731;50.720;6.912;2024-03-29T06:32:53;4.47;;;1.73;;
15256;SDS011;7731;50.720;6.912;2024-03-29T06:35:19;2.13;;;1.50;;
15256;SDS011;7731;50.720;6.912;2024-03-29T06:37:46;1.42;;;1.10;;
15256;SDS011;7731;50.720;6.912;2024-03-29T06:40:13;1.67;;;1.30;;
15256;SDS011;7731;50.720;6.912;2024-03-29T06:42:43;2.03;;;1.25;;
15256;SDS011;7731;50.720;6.912;2024-03-29T06:45:09;1.67;;;1.13;;
15256;SDS011;7731;50.720;6.912;2024-03-29T06:47:36;2.65;;;1.00;;
15256;SDS011;7731;50.720;6.912;2024-03-29T06:50:03;1.88;;;1.13;;
15256;SDS011;7731;50.720;6.912;2024-03-29T06:52:32;1.52;;;0.93;;
15256;SDS011;7731;50.720;6.912;2024-03-29T06:54:58;1.33;;;0.90;;
15256;SDS011;7731;50.720;6.912;2024-03-29T06:57:25;1.98;;;1.02;;
15256;SDS011;7731;50.720;6.912;2024-03-29T06:59:54;1.92;;;1.05;;
15256;SDS011;7731;50.720;6.912;2024-03-29T07:02:20;2.22;;;1.30;;
15256;SDS011;7731;50.720;6.912;2024-03-29T07:04:47;2.22;;;1.10;;
15256;SDS011;7731;50.720;6.912;2024-03-29T07:07:13;3.50;;;1.50;;
15256;SDS011;7731;50.720;6.912;2024-03-29T07:09:40;1.58;;;1.33;;
15256;SDS011;7731;50.720;6.912;2024-03-29T07:12:08;2.17;;;1.15;;
15256;SDS011;7731;50.720;6.912;2024-03-29T07:14:35;2.47;;;1.30;;
15256;SDS011;7731;50.720;6.912;2024-03-29T07:17:04;3.90;;;1.50;;
15256;SDS011;7731;50.720;6.912;2024-03-29T07:19:30;2.35;;;1.60;;
15256;SDS011;7731;50.720;6.912;2024-03-29T07:21:57;1.52;;;1.00;;
15256;SDS011;7731;50.720;6.912;2024-03-29T07:24:23;1.92;;;1.30;;
15256;SDS011;7731;50.720;6.912;2024-03-29T07:26:50;1.63;;;1.10;;
15256;SDS011;7731;50.720;6.912;2024-03-29T07:29:16;1.15;;;0.73;;
15256;SDS011;7731;50.720;6.912;2024-03-29T07:31:43;1.10;;;0.93;;
15256;SDS011;7731;50.720;6.912;2024-03-29T07:34:12;3.80;;;1.05;;
15256;SDS011;7731;50.720;6.912;2024-03-29T07:36:39;1.15;;;0.90;;
15256;SDS011;7731;50.720;6.912;2024-03-29T07:39:05;1.83;;;1.30;;
15256;SDS011;7731;50.720;6.912;2024-03-29T07:41:32;1.85;;;1.15;;
15256;SDS011;7731;50.720;6.912;2024-03-29T07:43:58;2.25;;;1.60;;
15256;SDS011;7731;50.720;6.912;2024-03-29T07:46:27;1.63;;;1.23;;
15256;SDS011;7731;50.720;6.912;2024-03-29T07:48:55;1.27;;;1.17;;
15256;SDS011;7731;50.720;6.912;2024-03-29T07:51:24;1.40;;;0.80;;
15256;SDS011;7731;50.720;6.912;2024-03-29T07:53:51;1.55;;;0.90;;
15256;SDS011;7731;50.720;6.912;2024-03-29T07:56:18;1.30;;;0.82;;
15256;SDS011;7731;50.720;6.912;2024-03-29T07:58:44;2.38;;;1.40;;
15256;SDS011;7731;50.720;6.912;2024-03-29T08:01:17;1.25;;;1.05;;
15256;SDS011;7731;50.720;6.912;2024-03-29T08:03:45;1.63;;;1.15;;
15256;SDS011;7731;50.720;6.912;2024-03-29T08:06:12;2.88;;;1.30;;
15256;SDS011;7731;50.720;6.912;2024-03-29T08:08:41;1.55;;;1.00;;
15256;SDS011;7731;50.720;6.912;2024-03-29T08:11:08;2.30;;;1.10;;
15256;SDS011;7731;50.720;6.912;2024-03-29T08:13:35;1.88;;;1.10;;
15256;SDS011;7731;50.720;6.912;2024-03-29T08:16:01;1.85;;;0.80;;
15256;SDS011;7731;50.720;6.912;2024-03-29T08:18:28;0.80;;;0.80;;
15256;SDS011;7731;50.720;6.912;2024-03-29T08:20:57;1.00;;;0.68;;
15256;SDS011;7731;50.720;6.912;2024-03-29T08:23:23;2.88;;;0.90;;
15256;SDS011;7731;50.720;6.912;2024-03-29T08:25:53;4.85;;;0.95;;
15256;SDS011;7731;50.720;6.912;2024-03-29T08:28:19;0.82;;;0.70;;
15256;SDS011;7731;50.720;6.912;2024-03-29T08:30:46;1.50;;;1.00;;
15256;SDS011;7731;50.720;6.912;2024-03-29T08:33:23;1.10;;;0.77;;
15256;SDS011;7731;50.720;6.912;2024-03-29T08:35:50;1.77;;;1.05;;
15256;SDS011;7731;50.720;6.912;2024-03-29T08:38:16;1.98;;;0.60;;
15256;SDS011;7731;50.720;6.912;2024-03-29T08:40:44;1.05;;;0.80;;
15256;SDS011;7731;50.720;6.912;2024-03-29T08:43:14;1.17;;;0.65;;
15256;SDS011;7731;50.720;6.912;2024-03-29T08:45:40;1.10;;;0.75;;
15256;SDS011;7731;50.720;6.912;2024-03-29T08:48:09;1.90;;;0.80;;
15256;SDS011;7731;50.720;6.912;2024-03-29T08:50:36;2.08;;;1.13;;
15256;SDS011;7731;50.720;6.912;2024-03-29T08:53:03;2.45;;;1.00;;
15256;SDS011;7731;50.720;6.912;2024-03-29T08:55:31;1.13;;;0.90;;
15256;SDS011;7731;50.720;6.912;2024-03-29T08:57:59;0.77;;;0.70;;
15256;SDS011;7731;50.720;6.912;2024-03-29T09:00:30;0.82;;;0.50;;
15256;SDS011;7731;50.720;6.912;2024-03-29T09:02:57;0.70;;;0.70;;
15256;SDS011;7731;50.720;6.912;2024-03-29T09:05:24;2.05;;;0.70;;
15256;SDS011;7731;50.720;6.912;2024-03-29T09:07:52;0.60;;;0.57;;
15256;SDS011;7731;50.720;6.912;2024-03-29T09:10:21;0.63;;;0.60;;
15256;SDS011;7731;50.720;6.912;2024-03-29T09:12:50;0.75;;;0.63;;
15256;SDS011;7731;50.720;6.912;2024-03-29T09:15:17;1.20;;;0.63;;
15256;SDS011;7731;50.720;6.912;2024-03-29T09:17:46;1.35;;;0.55;;
15256;SDS011;7731;50.720;6.912;2024-03-29T09:20:12;1.23;;;0.70;;
15256;SDS011;7731;50.720;6.912;2024-03-29T09:22:39;0.82;;;0.63;;
15256;SDS011;7731;50.720;6.912;2024-03-29T09:25:08;1.70;;;1.00;;
15256;SDS011;7731;50.720;6.912;2024-03-29T09:27:35;0.90;;;0.70;;
15256;SDS011;7731;50.720;6.912;2024-03-29T09:30:02;0.88;;;0.65;;
15256;SDS011;7731;50.720;6.912;2024-03-29T09:32:33;0.75;;;0.50;;
15256;SDS011;7731;50.720;6.912;2024-03-29T09:35:02;1.00;;;0.50;;
15256;SDS011;7731;50.720;6.912;2024-03-29T09:37:29;1.77;;;0.70;;
15256;SDS011;7731;50.720;6.912;2024-03-29T09:39:56;0.60;;;0.60;;
15256;SDS011;7731;50.720;6.912;2024-03-29T09:42:23;2.53;;;0.60;;
15256;SDS011;7731;50.720;6.912;2024-03-29T09:44:50;1.80;;;0.75;;
15256;SDS011;7731;50.720;6.912;2024-03-29T09:47:20;1.75;;;0.57;;
15256;SDS011;7731;50.720;6.912;2024-03-29T09:49:48;1.25;;;0.60;;
15256;SDS011;7731;50.720;6.912;2024-03-29T09:52:29;0.65;;;0.60;;
15256;SDS011;7731;50.720;6.912;2024-03-29T09:54:58;0.55;;;0.50;;
15256;SDS011;7731;50.720;6.912;2024-03-29T09:57:28;1.50;;;0.52;;
15256;SDS011;7731;50.720;6.912;2024-03-29T09:59:55;1.25;;;0.50;;
15256;SDS011;7731;50.720;6.912;2024-03-29T10:02:25;0.80;;;0.60;;
15256;SDS011;7731;50.720;6.912;2024-03-29T10:04:56;1.65;;;0.52;;
15256;SDS011;7731;50.720;6.912;2024-03-29T10:07:32;0.60;;;0.50;;
15256;SDS011;7731;50.720;6.912;2024-03-29T10:10:00;1.20;;;0.60;;
15256;SDS011;7731;50.720;6.912;2024-03-29T10:12:28;0.90;;;0.55;;
15256;SDS011;7731;50.720;6.912;2024-03-29T10:14:55;0.47;;;0.47;;
15256;SDS011;7731;50.720;6.912;2024-03-29T10:17:25;0.90;;;0.60;;
15256;SDS011;7731;50.720;6.912;2024-03-29T10:19:52;2.08;;;0.80;;
15256;SDS011;7731;50.720;6.912;2024-03-29T10:22:19;1.60;;;0.70;;
15256;SDS011;7731;50.720;6.912;2024-03-29T10:24:49;1.05;;;0.68;;
15256;SDS011;7731;50.720;6.912;2024-03-29T10:27:17;1.85;;;0.85;;
15256;SDS011;7731;50.720;6.912;2024-03-29T10:29:44;0.70;;;0.52;;
15256;SDS011;7731;50.720;6.912;2024-03-29T10:32:10;2.60;;;0.70;;
15256;SDS011;7731;50.720;6.912;2024-03-29T10:34:37;0.95;;;0.60;;
15256;SDS011;7731;50.720;6.912;2024-03-29T10:37:03;0.70;;;0.50;;
15256;SDS011;7731;50.720;6.912;2024-03-29T10:39:30;1.98;;;0.85;;
15256;SDS011;7731;50.720;6.912;2024-03-29T10:42:00;0.90;;;0.60;;
15256;SDS011;7731;50.720;6.912;2024-03-29T10:44:28;1.77;;;0.65;;
15256;SDS011;7731;50.720;6.912;2024-03-29T10:46:56;2.33;;;0.50;;
15256;SDS011;7731;50.720;6.912;2024-03-29T10:49:24;1.00;;;0.45;;
15256;SDS011;7731;50.720;6.912;2024-03-29T10:51:53;1.38;;;0.50;;
15256;SDS011;7731;50.720;6.912;2024-03-29T10:54:22;0.88;;;0.50;;
15256;SDS011;7731;50.720;6.912;2024-03-29T10:56:52;1.02;;;0.70;;
15256;SDS011;7731;50.720;6.912;2024-03-29T10:59:37;1.75;;;0.63;;
15256;SDS011;7731;50.720;6.912;2024-03-29T11:02:29;1.00;;;0.60;;
15256;SDS011;7731;50.720;6.912;2024-03-29T11:05:14;1.20;;;0.45;;
15256;SDS011;7731;50.720;6.912;2024-03-29T11:07:42;0.70;;;0.50;;
15256;SDS011;7731;50.720;6.912;2024-03-29T11:10:17;0.98;;;0.40;;
15256;SDS011;7731;50.720;6.912;2024-03-29T11:13:01;0.60;;;0.50;;
15256;SDS011;7731;50.720;6.912;2024-03-29T11:15:37;0.75;;;0.50;;
15256;SDS011;7731;50.720;6.912;2024-03-29T11:18:06;1.48;;;0.40;;
15256;SDS011;7731;50.720;6.912;2024-03-29T11:20:35;1.80;;;1.20;;
15256;SDS011;7731;50.720;6.912;2024-03-29T11:23:03;1.10;;;0.60;;
15256;SDS011;7731;50.720;6.912;2024-03-29T11:25:41;0.38;;;0.35;;
15256;SDS011;7731;50.720;6.912;2024-03-29T11:28:14;0.65;;;0.50;;
15256;SDS011;7731;50.720;6.912;2024-03-29T11:30:49;1.00;;;0.90;;
15256;SDS011;7731;50.720;6.912;2024-03-29T11:33:29;1.20;;;1.00;;
15256;SDS011;7731;50.720;6.912;2024-03-29T11:35:59;1.95;;;0.80;;
15256;SDS011;7731;50.720;6.912;2024-03-29T11:38:32;1.20;;;0.65;;
15256;SDS011;7731;50.720;6.912;2024-03-29T11:41:05;2.00;;;0.80;;
15256;SDS011;7731;50.720;6.912;2024-03-29T11:43:35;2.85;;;0.90;;
15256;SDS011;7731;50.720;6.912;2024-03-29T11:46:03;1.63;;;1.02;;
15256;SDS011;7731;50.720;6.912;2024-03-29T11:48:32;0.65;;;0.40;;
15256;SDS011;7731;50.720;6.912;2024-03-29T11:50:59;0.70;;;0.50;;
15256;SDS011;7731;50.720;6.912;2024-03-29T11:53:27;0.90;;;0.70;;
15256;SDS011;7731;50.720;6.912;2024-03-29T11:55:55;0.70;;;0.60;;
15256;SDS011;7731;50.720;6.912;2024-03-29T11:58:23;0.77;;;0.60;;
15256;SDS011;7731;50.720;6.912;2024-03-29T12:00:54;0.73;;;0.60;;
15256;SDS011;7731;50.720;6.912;2024-03-29T12:03:24;0.95;;;0.80;;
15256;SDS011;7731;50.720;6.912;2024-03-29T12:05:56;0.85;;;0.60;;
15256;SDS011;7731;50.720;6.912;2024-03-29T12:08:25;2.75;;;1.00;;
15256;SDS011;7731;50.720;6.912;2024-03-29T12:10:52;0.55;;;0.55;;
15256;SDS011;7731;50.720;6.912;2024-03-29T12:13:19;1.83;;;1.20;;
15256;SDS011;7731;50.720;6.912;2024-03-29T12:15:46;0.65;;;0.43;;
15256;SDS011;7731;50.720;6.912;2024-03-29T12:18:15;0.95;;;0.60;;
15256;SDS011;7731;50.720;6.912;2024-03-29T12:20:42;0.70;;;0.60;;
15256;SDS011;7731;50.720;6.912;2024-03-29T12:23:10;1.05;;;0.90;;
15256;SDS011;7731;50.720;6.912;2024-03-29T12:25:38;2.08;;;1.48;;
15256;SDS011;7731;50.720;6.912;2024-03-29T12:28:05;2.50;;;2.30;;
15256;SDS011;7731;50.720;6.912;2024-03-29T12:30:32;1.88;;;1.67;;
15256;SDS011;7731;50.720;6.912;2024-03-29T12:33:00;0.98;;;0.68;;
15256;SDS011;7731;50.720;6.912;2024-03-29T12:35:34;1.10;;;1.00;;
15256;SDS011;7731;50.720;6.912;2024-03-29T12:38:02;1.17;;;0.90;;
15256;SDS011;7731;50.720;6.912;2024-03-29T12:40:32;2.47;;;0.98;;
15256;SDS011;7731;50.720;6.912;2024-03-29T12:43:02;1.13;;;1.02;;
15256;SDS011;7731;50.720;6.912;2024-03-29T12:45:31;1.05;;;0.85;;
15256;SDS011;7731;50.720;6.912;2024-03-29T12:47:57;0.93;;;0.60;;
15256;SDS011;7731;50.720;6.912;2024-03-29T12:50:25;0.55;;;0.50;;
15256;SDS011;7731;50.720;6.912;2024-03-29T12:52:56;0.50;;;0.50;;
15256;SDS011;7731;50.720;6.912;2024-03-29T12:55:28;0.50;;;0.50;;
15256;SDS011;7731;50.720;6.912;2024-03-29T12:57:55;0.80;;;0.70;;
15256;SDS011;7731;50.720;6.912;2024-03-29T13:00:23;0.70;;;0.57;;
15256;SDS011;7731;50.720;6.912;2024-03-29T13:02:49;0.98;;;0.75;;
15256;SDS011;7731;50.720;6.912;2024-03-29T13:05:16;1.52;;;1.13;;
15256;SDS011;7731;50.720;6.912;2024-03-29T13:07:42;0.50;;;0.50;;
15256;SDS011;7731;50.720;6.912;2024-03-29T13:10:13;1.00;;;0.70;;
15256;SDS011;7731;50.720;6.912;2024-03-29T13:12:40;0.50;;;0.50;;
15256;SDS011;7731;50.720;6.912;2024-03-29T13:15:15;0.73;;;0.50;;
15256;SDS011;7731;50.720;6.912;2024-03-29T13:17:43;0.55;;;0.50;;
15256;SDS011;7731;50.720;6.912;2024-03-29T13:20:11;0.60;;;0.52;;
15256;SDS011;7731;50.720;6.912;2024-03-29T13:22:39;0.50;;;0.50;;
15256;SDS011;7731;50.720;6.912;2024-03-29T13:25:07;1.48;;;0.90;;
15256;SDS011;7731;50.720;6.912;2024-03-29T13:27:40;0.60;;;0.55;;
15256;SDS011;7731;50.720;6.912;2024-03-29T13:30:09;0.93;;;0.60;;
15256;SDS011;7731;50.720;6.912;2024-03-29T13:32:38;1.00;;;0.60;;
15256;SDS011;7731;50.720;6.912;2024-03-29T13:35:06;0.70;;;0.55;;
15256;SDS011;7731;50.720;6.912;2024-03-29T13:37:34;1.73;;;0.50;;
15256;SDS011;7731;50.720;6.912;2024-03-29T13:40:03;0.50;;;0.40;;
15256;SDS011;7731;50.720;6.912;2024-03-29T13:42:32;0.50;;;0.50;;
15256;SDS011;7731;50.720;6.912;2024-03-29T13:45:01;1.05;;;0.60;;
15256;SDS011;7731;50.720;6.912;2024-03-29T13:47:28;0.85;;;0.70;;
15256;SDS011;7731;50.720;6.912;2024-03-29T13:49:55;1.15;;;0.75;;
15256;SDS011;7731;50.720;6.912;2024-03-29T13:52:21;0.70;;;0.60;;
15256;SDS011;7731;50.720;6.912;2024-03-29T13:54:48;1.15;;;0.70;;
15256;SDS011;7731;50.720;6.912;2024-03-29T13:57:18;0.82;;;0.70;;
15256;SDS011;7731;50.720;6.912;2024-03-29T13:59:46;0.85;;;0.50;;
15256;SDS011;7731;50.720;6.912;2024-03-29T14:02:17;0.73;;;0.70;;
15256;SDS011;7731;50.720;6.912;2024-03-29T14:04:44;0.50;;;0.40;;
15256;SDS011;7731;50.720;6.912;2024-03-29T14:07:13;1.38;;;0.60;;
15256;SDS011;7731;50.720;6.912;2024-03-29T14:09:40;0.60;;;0.50;;
15256;SDS011;7731;50.720;6.912;2024-03-29T14:12:07;1.55;;;0.40;;
15256;SDS011;7731;50.720;6.912;2024-03-29T14:14:35;0.77;;;0.63;;
15256;SDS011;7731;50.720;6.912;2024-03-29T14:17:02;0.52;;;0.50;;
15256;SDS011;7731;50.720;6.912;2024-03-29T14:19:34;4.10;;;0.70;;
15256;SDS011;7731;50.720;6.912;2024-03-29T14:22:02;1.25;;;0.70;;
15256;SDS011;7731;50.720;6.912;2024-03-29T14:24:29;0.70;;;0.70;;
15256;SDS011;7731;50.720;6.912;2024-03-29T14:26:56;0.80;;;0.60;;
15256;SDS011;7731;50.720;6.912;2024-03-29T14:29:23;1.00;;;0.52;;
15256;SDS011;7731;50.720;6.912;2024-03-29T14:31:50;0.80;;;0.68;;
15256;SDS011;7731;50.720;6.912;2024-03-29T14:34:17;1.02;;;0.65;;
15256;SDS011;7731;50.720;6.912;2024-03-29T14:36:46;0.45;;;0.40;;
15256;SDS011;7731;50.720;6.912;2024-03-29T14:39:13;1.52;;;0.60;;
15256;SDS011;7731;50.720;6.912;2024-03-29T14:41:39;1.27;;;0.70;;
15256;SDS011;7731;50.720;6.912;2024-03-29T14:44:06;1.30;;;0.50;;
15256;SDS011;7731;50.720;6.912;2024-03-29T14:46:33;0.80;;;0.50;;
15256;SDS011;7731;50.720;6.912;2024-03-29T14:49:00;0.90;;;0.50;;
15256;SDS011;7731;50.720;6.912;2024-03-29T14:51:28;1.25;;;0.63;;
15256;SDS011;7731;50.720;6.912;2024-03-29T14:53:57;0.70;;;0.52;;
15256;SDS011;7731;50.720;6.912;2024-03-29T14:56:23;0.90;;;0.70;;
15256;SDS011;7731;50.720;6.912;2024-03-29T14:58:50;1.00;;;0.70;;
15256;SDS011;7731;50.720;6.912;2024-03-29T15:01:17;0.98;;;0.63;;
15256;SDS011;7731;50.720;6.912;2024-03-29T15:03:43;0.55;;;0.50;;
15256;SDS011;7731;50.720;6.912;2024-03-29T15:06:10;0.93;;;0.70;;